Time;durP1;ratioP1;P1;durP2;ratioP2;P2;SDS_P1;SDS_P2;PMS_P1;PMS_P2;Temp;Humidity;BMP_temperature;BMP_pressure;BME280_temperature;BME280_humidity;BME280_pressure;Samples;Min_cycle;Max_cycle;Signal;HPM_P1;HPM_P2
2023/09/19 00:00:35;;;;;;;12.10;3.67;;;;;;;;;;5084059;28;20400;-68
2023/09/19 00:03:22;;;;;;;15.00;4.10;;;;;;;;;;5081951;28;21061;-67
2023/09/19 00:05:50;;;;;;;11.52;4.00;;;;;;;;;;5081109;28;20059;-67
2023/09/19 00:08:16;;;;;;;15.52;4.35;;;;;;;;;;5070459;28;20080;-68
2023/09/19 00:10:43;;;;;;;11.50;4.20;;;;;;;;;;5078173;28;20466;-68
2023/09/19 00:13:13;;;;;;;9.68;4.15;;;;;;;;;;5078342;28;20173;-68
2023/09/19 00:15:51;;;;;;;10.85;3.80;;;;;;;;;;5077934;28;20043;-67
2023/09/19 00:18:24;;;;;;;10.55;3.80;;;;;;;;;;5077779;28;20603;-68
2023/09/19 00:20:51;;;;;;;6.03;3.33;;;;;;;;;;5078791;28;20048;-67
2023/09/19 00:23:18;;;;;;;11.40;3.45;;;;;;;;;;5081382;28;20051;-67
2023/09/19 00:25:45;;;;;;;11.43;4.07;;;;;;;;;;5081296;28;20060;-67
2023/09/19 00:28:11;;;;;;;16.05;4.78;;;;;;;;;;5077856;28;20052;-69
2023/09/19 00:30:38;;;;;;;12.52;4.53;;;;;;;;;;5081866;28;20496;-67
2023/09/19 00:33:06;;;;;;;11.90;4.78;;;;;;;;;;5077966;28;20056;-67
2023/09/19 00:35:33;;;;;;;15.95;5.65;;;;;;;;;;5076495;28;20048;-68
2023/09/19 00:37:59;;;;;;;14.43;5.38;;;;;;;;;;5074721;28;20075;-67
2023/09/19 00:40:26;;;;;;;10.80;5.15;;;;;;;;;;5082887;28;20081;-68
2023/09/19 00:42:59;;;;;;;10.60;4.38;;;;;;;;;;5078700;28;20641;-68
2023/09/19 00:45:26;;;;;;;11.45;4.32;;;;;;;;;;5072971;28;20048;-67
2023/09/19 00:47:51;;;;;;;9.40;4.15;;;;;;;;;;5074403;28;20059;-68
2023/09/19 00:50:21;;;;;;;8.77;3.75;;;;;;;;;;5076402;28;20048;-69
2023/09/19 00:52:49;;;;;;;14.15;3.88;;;;;;;;;;5075873;28;20121;-66
2023/09/19 00:55:16;;;;;;;8.05;3.53;;;;;;;;;;5079895;28;20048;-68
2023/09/19 00:57:43;;;;;;;9.70;3.10;;;;;;;;;;5080683;28;20062;-68
2023/09/19 01:00:14;;;;;;;9.73;3.55;;;;;;;;;;5085135;28;20059;-66
2023/09/19 01:02:42;;;;;;;8.85;3.50;;;;;;;;;;5081468;28;20032;-67
2023/09/19 01:05:09;;;;;;;7.20;3.20;;;;;;;;;;5076569;28;20053;-66
2023/09/19 01:07:36;;;;;;;6.20;3.00;;;;;;;;;;5076208;28;20056;-67
2023/09/19 01:10:14;;;;;;;6.63;2.70;;;;;;;;;;5079583;28;20056;-66
2023/09/19 01:13:00;;;;;;;9.15;3.33;;;;;;;;;;5073647;28;20051;-68
2023/09/19 01:15:42;;;;;;;8.23;2.83;;;;;;;;;;5079897;28;20060;-66
2023/09/19 01:18:23;;;;;;;5.22;2.53;;;;;;;;;;5078390;28;20038;-67
2023/09/19 01:20:49;;;;;;;7.28;2.78;;;;;;;;;;5079517;28;20797;-69
2023/09/19 01:23:18;;;;;;;5.68;2.72;;;;;;;;;;5082882;28;20568;-69
2023/09/19 01:26:08;;;;;;;7.65;3.08;;;;;;;;;;5073015;28;20052;-68
2023/09/19 01:28:47;;;;;;;6.30;2.75;;;;;;;;;;5076530;28;20044;-68
2023/09/19 01:31:14;;;;;;;6.03;2.88;;;;;;;;;;5072881;28;20057;-69
2023/09/19 01:34:01;;;;;;;7.32;2.63;;;;;;;;;;5075706;28;20150;-67
2023/09/19 01:36:35;;;;;;;5.63;2.78;;;;;;;;;;5086777;28;20040;-68
2023/09/19 01:39:08;;;;;;;9.80;3.70;;;;;;;;;;5075309;28;20840;-66
2023/09/19 01:42:07;;;;;;;11.35;4.22;;;;;;;;;;5075539;28;20049;-67
2023/09/19 01:44:48;;;;;;;10.15;3.80;;;;;;;;;;5074868;28;20575;-68
2023/09/19 01:47:31;;;;;;;11.40;4.15;;;;;;;;;;5081979;28;20165;-67
2023/09/19 01:50:32;;;;;;;11.25;4.32;;;;;;;;;;5081484;28;20578;-71
2023/09/19 01:53:09;;;;;;;12.15;4.18;;;;;;;;;;5077366;28;20040;-68
2023/09/19 01:55:42;;;;;;;10.10;4.30;;;;;;;;;;5070258;28;20055;-68
2023/09/19 01:58:17;;;;;;;12.82;3.92;;;;;;;;;;5081363;28;20051;-68
2023/09/19 02:00:44;;;;;;;12.43;4.30;;;;;;;;;;5080619;28;20035;-69
2023/09/19 02:03:12;;;;;;;9.65;4.03;;;;;;;;;;5081847;28;20054;-66
2023/09/19 02:05:39;;;;;;;7.57;3.70;;;;;;;;;;5077953;28;20056;-68
2023/09/19 02:08:05;;;;;;;7.40;3.30;;;;;;;;;;5083861;28;20060;-67
2023/09/19 02:10:31;;;;;;;8.27;3.17;;;;;;;;;;5072395;28;20077;-67
2023/09/19 02:12:59;;;;;;;11.25;3.70;;;;;;;;;;5073030;28;20052;-67
2023/09/19 02:15:24;;;;;;;8.95;3.45;;;;;;;;;;5070400;28;20481;-67
2023/09/19 02:17:53;;;;;;;8.27;3.50;;;;;;;;;;5075020;28;20060;-67
2023/09/19 02:20:20;;;;;;;6.25;3.15;;;;;;;;;;5078500;28;20056;-68
2023/09/19 02:22:46;;;;;;;10.95;3.20;;;;;;;;;;5081931;28;20044;-67
2023/09/19 02:25:13;;;;;;;7.00;2.85;;;;;;;;;;5075407;28;20048;-68
2023/09/19 02:27:39;;;;;;;6.05;2.35;;;;;;;;;;5078686;28;20124;-68
2023/09/19 02:30:06;;;;;;;11.02;3.20;;;;;;;;;;5074505;28;20057;-69
2023/09/19 02:32:35;;;;;;;6.10;2.63;;;;;;;;;;5076694;28;20048;-67
2023/09/19 02:35:01;;;;;;;7.85;2.60;;;;;;;;;;5083084;28;20060;-67
2023/09/19 02:37:29;;;;;;;6.88;2.80;;;;;;;;;;5087185;28;20048;-68
2023/09/19 02:39:56;;;;;;;5.60;2.35;;;;;;;;;;5086417;28;20044;-68
2023/09/19 02:42:22;;;;;;;5.93;2.67;;;;;;;;;;5078274;28;20064;-67
2023/09/19 02:44:48;;;;;;;6.10;2.47;;;;;;;;;;5078626;28;20114;-66
2023/09/19 02:47:15;;;;;;;7.75;2.88;;;;;;;;;;5082665;28;20044;-66
2023/09/19 02:49:42;;;;;;;9.48;2.95;;;;;;;;;;5081053;28;20353;-66
2023/09/19 02:52:08;;;;;;;8.80;3.10;;;;;;;;;;5085255;28;20408;-66
2023/09/19 02:54:34;;;;;;;11.48;4.40;;;;;;;;;;5079900;28;20509;-67
2023/09/19 02:57:00;;;;;;;12.77;4.28;;;;;;;;;;5084181;28;20067;-66
2023/09/19 02:59:28;;;;;;;14.82;5.38;;;;;;;;;;5083421;28;20044;-67
2023/09/19 03:01:54;;;;;;;17.13;5.65;;;;;;;;;;5079422;28;20040;-68
2023/09/19 03:04:20;;;;;;;15.27;6.47;;;;;;;;;;5083853;28;20092;-67
2023/09/19 03:06:48;;;;;;;18.92;7.07;;;;;;;;;;5089694;28;20121;-67
2023/09/19 03:09:15;;;;;;;18.05;6.30;;;;;;;;;;5083108;28;20059;-66
2023/09/19 03:11:42;;;;;;;19.90;7.03;;;;;;;;;;5080800;28;20044;-68
2023/09/19 03:14:09;;;;;;;14.82;6.00;;;;;;;;;;5082762;28;20495;-66
2023/09/19 03:16:37;;;;;;;14.48;5.55;;;;;;;;;;5085927;28;20119;-68
2023/09/19 03:19:03;;;;;;;12.07;5.18;;;;;;;;;;5080052;28;20431;-66
2023/09/19 03:21:30;;;;;;;14.77;5.45;;;;;;;;;;5075361;28;20288;-66
2023/09/19 03:23:56;;;;;;;15.98;5.03;;;;;;;;;;5075731;28;20056;-67
2023/09/19 03:26:22;;;;;;;15.90;5.00;;;;;;;;;;5083199;28;20480;-66
2023/09/19 03:28:48;;;;;;;16.02;4.85;;;;;;;;;;5077716;28;20048;-67
2023/09/19 03:31:14;;;;;;;14.68;5.00;;;;;;;;;;5080714;28;20056;-66
2023/09/19 03:33:39;;;;;;;11.00;4.80;;;;;;;;;;5084039;28;20497;-68
2023/09/19 03:36:06;;;;;;;15.82;5.72;;;;;;;;;;5080839;28;20093;-67
2023/09/19 03:38:34;;;;;;;17.23;5.70;;;;;;;;;;5078574;28;20044;-68
2023/09/19 03:41:01;;;;;;;11.60;4.88;;;;;;;;;;5075775;28;20051;-67
2023/09/19 03:43:27;;;;;;;14.18;5.00;;;;;;;;;;5084018;28;20131;-68
2023/09/19 03:45:56;;;;;;;11.38;4.47;;;;;;;;;;5078904;28;20056;-67
2023/09/19 03:48:23;;;;;;;10.60;4.38;;;;;;;;;;5078189;28;20048;-67
2023/09/19 03:50:51;;;;;;;9.85;4.18;;;;;;;;;;5075543;28;20467;-68
2023/09/19 03:53:16;;;;;;;9.20;4.30;;;;;;;;;;5077126;28;20503;-68
2023/09/19 03:55:46;;;;;;;14.05;3.60;;;;;;;;;;5075448;28;20056;-67
2023/09/19 03:58:12;;;;;;;6.63;3.17;;;;;;;;;;5080725;28;20059;-67
2023/09/19 04:00:38;;;;;;;11.25;3.22;;;;;;;;;;5084070;28;20506;-66
2023/09/19 04:03:06;;;;;;;9.43;3.28;;;;;;;;;;5088954;28;20544;-67
2023/09/19 04:05:33;;;;;;;8.23;3.33;;;;;;;;;;5088444;28;20048;-68
2023/09/19 04:07:59;;;;;;;4.55;2.58;;;;;;;;;;5083778;28;20071;-68
2023/09/19 04:10:26;;;;;;;4.78;2.45;;;;;;;;;;5084878;28;21466;-68
2023/09/19 04:12:53;;;;;;;3.60;2.20;;;;;;;;;;5082756;28;20232;-68
2023/09/19 04:15:19;;;;;;;11.38;3.22;;;;;;;;;;5090179;28;20048;-66
2023/09/19 04:17:45;;;;;;;7.97;2.67;;;;;;;;;;5084915;28;20051;-66
2023/09/19 04:20:12;;;;;;;5.68;2.40;;;;;;;;;;5074282;28;20048;-68
2023/09/19 04:22:39;;;;;;;4.63;2.53;;;;;;;;;;5085717;28;20044;-67
2023/09/19 04:25:08;;;;;;;7.72;2.72;;;;;;;;;;5077605;28;20052;-65
2023/09/19 04:27:34;;;;;;;6.75;2.50;;;;;;;;;;5079865;28;20109;-67
2023/09/19 04:30:09;;;;;;;4.65;2.17;;;;;;;;;;5074241;28;20052;-69
2023/09/19 04:32:39;;;;;;;7.25;2.55;;;;;;;;;;5076104;28;20060;-68
2023/09/19 04:35:10;;;;;;;5.05;2.33;;;;;;;;;;5080577;28;20044;-69
2023/09/19 04:37:44;;;;;;;5.82;2.50;;;;;;;;;;5080239;28;20059;-69
2023/09/19 04:40:17;;;;;;;7.32;2.40;;;;;;;;;;5074616;28;20548;-67
2023/09/19 04:42:43;;;;;;;6.70;2.67;;;;;;;;;;5084837;28;20128;-69
2023/09/19 04:45:10;;;;;;;5.95;2.67;;;;;;;;;;5084930;28;20055;-70
2023/09/19 04:47:38;;;;;;;7.78;2.95;;;;;;;;;;5077298;28;20123;-69
2023/09/19 04:50:08;;;;;;;8.10;3.25;;;;;;;;;;5085303;28;20052;-70
2023/09/19 04:52:35;;;;;;;6.03;2.88;;;;;;;;;;5075672;28;20458;-68
2023/09/19 04:55:01;;;;;;;11.35;2.95;;;;;;;;;;5088268;28;20064;-67
2023/09/19 04:58:07;;;;;;;11.80;3.10;;;;;;;;;;5081252;28;20087;-69
2023/09/19 05:01:47;;;;;;;7.82;2.80;;;;;;;;;;5079090;28;20048;-68
2023/09/19 05:05:28;;;;;;;7.45;2.88;;;;;;;;;;5079180;28;20128;-67
2023/09/19 05:09:08;;;;;;;10.43;3.75;;;;;;;;;;5072943;28;20500;-66
2023/09/19 05:12:51;;;;;;;11.00;3.95;;;;;;;;;;5082530;28;20130;-67
2023/09/19 05:16:29;;;;;;;12.27;4.93;;;;;;;;;;5075936;28;20426;-66
2023/09/19 05:20:24;;;;;;;15.43;4.88;;;;;;;;;;5076770;28;20051;-68
2023/09/19 05:23:52;;;;;;;12.70;4.70;;;;;;;;;;5073056;28;20047;-67
2023/09/19 05:26:55;;;;;;;10.43;4.30;;;;;;;;;;5076202;28;20058;-67
2023/09/19 05:29:21;;;;;;;14.18;5.03;;;;;;;;;;5067619;28;20044;-65
2023/09/19 05:32:27;;;;;;;12.95;4.35;;;;;;;;;;5076897;28;20055;-67
2023/09/19 05:35:27;;;;;;;10.73;3.80;;;;;;;;;;5075294;28;20044;-69
2023/09/19 05:37:55;;;;;;;9.15;3.80;;;;;;;;;;5074604;28;20493;-68
2023/09/19 05:40:21;;;;;;;14.63;3.83;;;;;;;;;;5077321;28;20520;-67
2023/09/19 05:43:27;;;;;;;11.82;3.63;;;;;;;;;;5068844;28;20197;-68
2023/09/19 05:47:08;;;;;;;15.25;4.45;;;;;;;;;;5081141;28;20102;-72
2023/09/19 05:50:49;;;;;;;13.32;4.38;;;;;;;;;;5078780;28;20123;-68
2023/09/19 05:54:29;;;;;;;13.65;6.07;;;;;;;;;;5084463;28;20121;-68
2023/09/19 05:58:08;;;;;;;18.23;5.63;;;;;;;;;;5070770;28;20040;-66
2023/09/19 06:01:15;;;;;;;18.58;5.95;;;;;;;;;;5083030;28;20052;-68
2023/09/19 06:04:55;;;;;;;12.95;5.47;;;;;;;;;;5069485;28;20442;-68
2023/09/19 06:08:07;;;;;;;21.20;5.90;;;;;;;;;;5069639;28;20408;-66
2023/09/19 06:11:43;;;;;;;14.15;5.18;;;;;;;;;;5079312;28;20368;-66
2023/09/19 06:15:25;;;;;;;21.05;5.75;;;;;;;;;;5076815;28;20371;-67
2023/09/19 06:19:08;;;;;;;17.63;4.78;;;;;;;;;;5084292;28;20048;-64
2023/09/19 06:22:44;;;;;;;19.70;5.60;;;;;;;;;;5080406;28;20044;-72
2023/09/19 06:26:26;;;;;;;15.27;6.03;;;;;;;;;;5077047;28;20044;-70
2023/09/19 06:30:06;;;;;;;21.52;4.97;;;;;;;;;;5073971;28;20044;-69
2023/09/19 06:33:45;;;;;;;17.08;4.85;;;;;;;;;;5074888;28;20090;-66
2023/09/19 06:37:27;;;;;;;17.70;6.00;;;;;;;;;;5076862;28;20036;-69
2023/09/19 06:41:08;;;;;;;16.33;6.07;;;;;;;;;;5072683;28;20507;-68
2023/09/19 06:44:48;;;;;;;16.63;5.53;;;;;;;;;;5074159;28;20056;-70
2023/09/19 06:48:29;;;;;;;15.10;4.40;;;;;;;;;;5071674;28;20131;-67
2023/09/19 06:52:09;;;;;;;8.70;3.05;;;;;;;;;;5075699;28;20564;-71
2023/09/19 06:55:49;;;;;;;6.47;2.95;;;;;;;;;;5086197;28;20155;-77
2023/09/19 06:59:32;;;;;;;8.38;2.92;;;;;;;;;;5084633;28;20040;-75
2023/09/19 07:03:21;;;;;;;10.80;3.47;;;;;;;;;;5088585;28;20070;-79
2023/09/19 07:06:59;;;;;;;14.38;3.40;;;;;;;;;;5087605;28;20040;-78
2023/09/19 07:10:41;;;;;;;15.40;3.60;;;;;;;;;;5084628;28;20096;-75
2023/09/19 07:14:21;;;;;;;13.95;3.25;;;;;;;;;;5092053;28;20056;-77
2023/09/19 07:18:01;;;;;;;16.67;3.40;;;;;;;;;;5091196;28;20124;-77
2023/09/19 07:21:42;;;;;;;11.32;3.47;;;;;;;;;;5094209;28;20097;-76
2023/09/19 07:25:22;;;;;;;13.63;3.70;;;;;;;;;;5090263;28;20039;-81
2023/09/19 07:29:03;;;;;;;10.85;3.45;;;;;;;;;;5094554;28;20336;-79
2023/09/19 07:32:43;;;;;;;11.77;3.55;;;;;;;;;;5086968;28;20496;-80
2023/09/19 07:36:29;;;;;;;11.18;3.10;;;;;;;;;;5089039;28;20032;-79
2023/09/19 07:40:11;;;;;;;16.42;3.50;;;;;;;;;;5078847;28;20396;-79
2023/09/19 07:43:52;;;;;;;17.17;3.95;;;;;;;;;;5094334;28;20048;-78
2023/09/19 07:47:32;;;;;;;25.58;3.53;;;;;;;;;;5094140;28;20047;-80
2023/09/19 07:51:13;;;;;;;16.73;3.72;;;;;;;;;;5082420;28;20134;-78
2023/09/19 07:54:53;;;;;;;12.82;4.07;;;;;;;;;;5087479;28;20084;-79
2023/09/19 07:58:33;;;;;;;12.20;3.70;;;;;;;;;;5087800;28;20496;-75
2023/09/19 08:02:16;;;;;;;14.50;4.07;;;;;;;;;;5094652;28;20047;-80
2023/09/19 08:05:57;;;;;;;29.27;5.07;;;;;;;;;;5092917;28;20508;-83
2023/09/19 08:09:38;;;;;;;35.45;5.72;;;;;;;;;;5094171;28;20247;-80
2023/09/19 08:13:18;;;;;;;21.50;5.45;;;;;;;;;;5097843;28;20052;-79
2023/09/19 08:16:58;;;;;;;22.23;5.53;;;;;;;;;;5092653;28;20052;-77
2023/09/19 08:20:07;;;;;;;19.58;6.00;;;;;;;;;;5079326;28;20923;-78
2023/09/19 08:23:47;;;;;;;27.13;6.22;;;;;;;;;;5092523;28;20055;-79
2023/09/19 08:27:28;;;;;;;21.55;5.60;;;;;;;;;;5080487;28;20453;-78
2023/09/19 08:31:10;;;;;;;25.67;6.90;;;;;;;;;;5089179;28;20036;-80
2023/09/19 08:34:50;;;;;;;30.48;6.05;;;;;;;;;;5093495;28;20052;-80
2023/09/19 08:38:32;;;;;;;24.60;5.85;;;;;;;;;;5084170;28;20356;-78
2023/09/19 08:42:17;;;;;;;37.20;6.32;;;;;;;;;;5097163;28;20091;-81
2023/09/19 08:45:57;;;;;;;29.95;6.32;;;;;;;;;;5094069;28;20040;-78
2023/09/19 08:49:33;;;;;;;27.70;6.15;;;;;;;;;;5082183;28;20419;-80
2023/09/19 08:53:13;;;;;;;37.20;6.60;;;;;;;;;;5081883;28;20075;-79
2023/09/19 08:56:53;;;;;;;29.58;5.95;;;;;;;;;;5096843;28;20284;-80
2023/09/19 09:00:35;;;;;;;19.23;5.65;;;;;;;;;;5083854;28;20066;-81
2023/09/19 09:04:15;;;;;;;21.85;5.60;;;;;;;;;;5096290;28;20062;-78
2023/09/19 09:07:56;;;;;;;26.23;5.05;;;;;;;;;;5089924;28;20054;-80
2023/09/19 09:11:39;;;;;;;23.70;5.43;;;;;;;;;;5091047;28;20092;-79
2023/09/19 09:15:16;;;;;;;21.55;5.05;;;;;;;;;;5095181;28;20098;-79
2023/09/19 09:18:57;;;;;;;14.88;4.70;;;;;;;;;;5088645;28;20548;-81
2023/09/19 09:22:49;;;;;;;13.82;5.15;;;;;;;;;;5090687;28;20079;-78
2023/09/19 09:26:30;;;;;;;21.75;5.13;;;;;;;;;;5092107;28;20047;-78
2023/09/19 09:30:19;;;;;;;27.30;4.82;;;;;;;;;;5096632;28;20036;-79
2023/09/19 09:34:00;;;;;;;14.70;4.70;;;;;;;;;;5087620;28;20044;-79
2023/09/19 09:37:40;;;;;;;18.42;4.55;;;;;;;;;;5084752;28;20112;-80
2023/09/19 09:41:35;;;;;;;17.95;3.90;;;;;;;;;;5091323;28;20040;-79
2023/09/19 09:45:12;;;;;;;15.48;3.95;;;;;;;;;;5089649;28;20132;-79
2023/09/19 09:49:14;;;;;;;11.35;3.47;;;;;;;;;;5104249;28;20044;-80
2023/09/19 09:52:40;;;;;;;12.02;4.20;;;;;;;;;;5092980;28;20043;-78
2023/09/19 09:56:38;;;;;;;12.40;3.72;;;;;;;;;;5085331;28;20032;-80
2023/09/19 10:03:49;;;;;;;13.75;3.55;;;;;;;;;;5022992;28;20051;-80
2023/09/19 10:07:22;;;;;;;11.85;3.28;;;;;;;;;;5015301;28;20034;-81
2023/09/19 10:11:14;;;;;;;13.15;3.30;;;;;;;;;;5011109;28;20041;-80
2023/09/19 10:14:58;;;;;;;9.68;3.15;;;;;;;;;;5010484;28;20062;-79
2023/09/19 10:18:01;;;;;;;8.90;3.15;;;;;;;;;;5007251;28;20200;-81
2023/09/19 10:20:36;;;;;;;9.45;3.10;;;;;;;;;;5024319;28;20506;-80
2023/09/19 10:23:10;;;;;;;11.32;3.60;;;;;;;;;;5015685;28;20339;-81
2023/09/19 10:25:38;;;;;;;10.65;4.07;;;;;;;;;;5015881;28;20045;-80
2023/09/19 10:28:15;;;;;;;11.93;4.50;;;;;;;;;;5017098;28;20053;-79
2023/09/19 10:30:46;;;;;;;15.77;5.10;;;;;;;;;;5020626;28;20112;-80
2023/09/19 10:33:16;;;;;;;13.30;4.30;;;;;;;;;;5068273;28;20056;-82
2023/09/19 10:36:05;;;;;;;18.60;5.57;;;;;;;;;;5111590;28;20108;-80
2023/09/19 10:38:33;;;;;;;17.08;5.03;;;;;;;;;;5117935;28;20043;-80
2023/09/19 10:41:00;;;;;;;18.23;5.25;;;;;;;;;;5097585;28;20097;-79
2023/09/19 10:43:31;;;;;;;15.45;4.50;;;;;;;;;;5084105;28;20068;-81
2023/09/19 10:46:03;;;;;;;18.15;3.95;;;;;;;;;;5102451;28;20112;-82
2023/09/19 10:48:31;;;;;;;12.45;3.90;;;;;;;;;;5100716;28;20108;-80
2023/09/19 10:51:23;;;;;;;11.63;3.22;;;;;;;;;;5097262;28;20043;-80
2023/09/19 10:54:13;;;;;;;7.43;2.85;;;;;;;;;;5098230;28;20048;-80
2023/09/19 10:56:46;;;;;;;8.45;3.15;;;;;;;;;;5096731;28;20064;-79
2023/09/19 10:59:16;;;;;;;8.32;2.50;;;;;;;;;;5098023;28;20101;-81
2023/09/19 11:01:52;;;;;;;9.65;2.90;;;;;;;;;;5093271;28;20108;-81
2023/09/19 11:04:33;;;;;;;7.28;2.72;;;;;;;;;;5098859;28;20040;-82
2023/09/19 11:07:20;;;;;;;11.73;2.80;;;;;;;;;;5091812;28;20431;-79
2023/09/19 11:09:48;;;;;;;5.15;2.15;;;;;;;;;;5098846;28;20040;-79
2023/09/19 11:12:29;;;;;;;10.07;2.40;;;;;;;;;;5093108;28;20384;-80
2023/09/19 11:14:55;;;;;;;8.90;2.53;;;;;;;;;;5088348;28;20217;-81
2023/09/19 11:17:22;;;;;;;10.27;2.80;;;;;;;;;;5099487;28;20060;-80
2023/09/19 11:22:50;;;;;;;9.95;3.30;;;;;;;;;;5101842;28;20044;-80
2023/09/19 11:28:07;;;;;;;10.40;2.70;;;;;;;;;;5098391;28;20636;-82
2023/09/19 11:30:33;;;;;;;5.28;3.03;;;;;;;;;;5094346;28;20056;-82
2023/09/19 11:33:28;;;;;;;8.35;2.20;;;;;;;;;;5087662;28;20040;-80
2023/09/19 11:36:09;;;;;;;6.82;2.83;;;;;;;;;;5095694;28;20047;-80
2023/09/19 11:41:27;;;;;;;7.25;1.92;;;;;;;;;;5086149;28;20458;-76
2023/09/19 11:44:16;;;;;;;8.13;3.08;;;;;;;;;;5088743;28;20071;-75
2023/09/19 11:46:54;;;;;;;8.05;2.15;;;;;;;;;;5091766;28;20059;-76
2023/09/19 11:49:30;;;;;;;6.35;1.70;;;;;;;;;;5090941;28;20055;-80
2023/09/19 11:51:57;;;;;;;9.20;2.13;;;;;;;;;;5096273;28;20050;-81
2023/09/19 11:54:28;;;;;;;5.13;1.90;;;;;;;;;;5102875;28;20047;-81
2023/09/19 11:56:54;;;;;;;6.32;1.52;;;;;;;;;;5103734;28;20044;-81
2023/09/19 11:59:22;;;;;;;6.25;2.25;;;;;;;;;;5104677;28;20135;-81
2023/09/19 12:01:59;;;;;;;8.75;2.08;;;;;;;;;;5095692;28;20040;-80
2023/09/19 12:04:43;;;;;;;4.15;1.40;;;;;;;;;;5103330;28;20051;-81
2023/09/19 12:07:16;;;;;;;8.52;1.63;;;;;;;;;;5100991;28;20048;-80
2023/09/19 12:09:44;;;;;;;6.45;1.80;;;;;;;;;;5092341;28;20052;-81
2023/09/19 12:12:15;;;;;;;8.10;1.80;;;;;;;;;;5103847;28;20050;-79
2023/09/19 12:14:43;;;;;;;6.40;2.03;;;;;;;;;;5096052;28;20078;-80
2023/09/19 12:17:10;;;;;;;4.93;1.70;;;;;;;;;;5101901;28;20415;-81
2023/09/19 12:19:36;;;;;;;7.75;1.70;;;;;;;;;;5103233;28;20465;-80
2023/09/19 12:22:06;;;;;;;4.75;1.95;;;;;;;;;;5107700;28;20093;-80
2023/09/19 12:24:34;;;;;;;6.90;2.13;;;;;;;;;;5111181;28;20056;-78
2023/09/19 12:27:06;;;;;;;11.45;2.13;;;;;;;;;;5104176;28;20111;-79
2023/09/19 12:29:45;;;;;;;;;;;;;;;;;;5104011;28;20048;-80
2023/09/19 12:32:11;;;;;;;5.90;1.73;;;;;;;;;;5109504;28;19928;-79
2023/09/19 12:34:42;;;;;;;5.65;1.50;;;;;;;;;;5098465;28;20082;-82
2023/09/19 12:37:20;;;;;;;5.20;2.00;;;;;;;;;;5109875;28;20032;-81
2023/09/19 12:39:53;;;;;;;11.73;1.90;;;;;;;;;;5100278;28;20048;-80
2023/09/19 12:42:22;;;;;;;8.35;1.83;;;;;;;;;;5088402;28;20048;-80
2023/09/19 12:44:55;;;;;;;7.70;2.10;;;;;;;;;;5102260;28;20044;-79
2023/09/19 12:47:25;;;;;;;8.40;2.05;;;;;;;;;;5102613;28;20419;-78
2023/09/19 12:50:16;;;;;;;7.35;1.83;;;;;;;;;;5099059;28;20056;-80
2023/09/19 12:52:49;;;;;;;4.75;1.80;;;;;;;;;;5094971;28;20139;-80
2023/09/19 12:55:28;;;;;;;6.78;1.80;;;;;;;;;;5093640;28;20147;-78
2023/09/19 12:57:58;;;;;;;9.50;2.30;;;;;;;;;;5089903;28;20044;-77
2023/09/19 13:00:37;;;;;;;6.45;2.22;;;;;;;;;;5080042;28;20156;-74
2023/09/19 13:03:28;;;;;;;4.30;1.77;;;;;;;;;;5086538;28;20514;-74
2023/09/19 13:06:02;;;;;;;8.13;1.98;;;;;;;;;;5091164;28;20052;-74
2023/09/19 13:08:32;;;;;;;6.93;2.03;;;;;;;;;;5065462;28;20121;-74
2023/09/19 13:11:20;;;;;;;6.20;1.80;;;;;;;;;;5091378;28;20051;-75
2023/09/19 13:14:04;;;;;;;10.57;2.28;;;;;;;;;;5091974;28;20040;-75
2023/09/19 13:16:31;;;;;;;;;;;;;;;;;;5089035;28;20461;-75
2023/09/19 13:18:57;;;;;;;7.03;1.92;;;;;;;;;;5093693;28;19920;-76
2023/09/19 13:21:37;;;;;;;5.03;2.20;;;;;;;;;;5093995;28;20063;-78
2023/09/19 13:24:22;;;;;;;10.68;1.95;;;;;;;;;;5098519;28;20052;-78
2023/09/19 13:26:51;;;;;;;5.50;1.83;;;;;;;;;;5097702;28;20048;-80
2023/09/19 13:29:18;;;;;;;9.85;2.08;;;;;;;;;;5112065;28;20081;-77
2023/09/19 13:31:52;;;;;;;3.90;1.90;;;;;;;;;;5093119;28;20070;-79
2023/09/19 13:34:19;;;;;;;6.43;2.00;;;;;;;;;;5087652;28;20052;-80
2023/09/19 13:36:48;;;;;;;7.25;1.70;;;;;;;;;;5095793;28;20048;-78
2023/09/19 13:39:17;;;;;;;3.47;1.85;;;;;;;;;;5098328;28;20048;-80
2023/09/19 13:41:46;;;;;;;3.63;1.90;;;;;;;;;;5086939;28;20048;-78
2023/09/19 13:44:12;;;;;;;11.13;2.97;;;;;;;;;;5095558;28;20036;-78
2023/09/19 13:46:38;;;;;;;5.72;1.98;;;;;;;;;;5091121;28;20040;-78
2023/09/19 13:49:07;;;;;;;6.75;2.30;;;;;;;;;;5087894;28;20040;-72
2023/09/19 13:51:34;;;;;;;7.13;2.38;;;;;;;;;;5078209;28;20059;-76
2023/09/19 13:54:00;;;;;;;7.55;2.28;;;;;;;;;;5085671;28;20052;-73
2023/09/19 13:56:31;;;;;;;5.47;2.08;;;;;;;;;;5084481;28;20411;-74
2023/09/19 13:58:59;;;;;;;6.93;2.97;;;;;;;;;;5087873;28;20127;-75
2023/09/19 14:01:26;;;;;;;8.45;2.63;;;;;;;;;;5087189;28;20060;-74
2023/09/19 14:03:54;;;;;;;9.50;2.78;;;;;;;;;;5084364;28;20040;-70
2023/09/19 14:06:20;;;;;;;13.10;3.45;;;;;;;;;;5078808;28;20044;-72
2023/09/19 14:08:47;;;;;;;10.57;3.67;;;;;;;;;;5073707;28;20126;-71
2023/09/19 14:11:14;;;;;;;11.18;3.47;;;;;;;;;;5084002;28;20050;-70
2023/09/19 14:13:40;;;;;;;12.55;4.63;;;;;;;;;;5085838;28;20400;-73
2023/09/19 14:16:08;;;;;;;15.27;4.85;;;;;;;;;;5082566;28;20068;-70
2023/09/19 14:18:35;;;;;;;13.00;3.65;;;;;;;;;;5087428;28;20388;-71
2023/09/19 14:21:05;;;;;;;10.80;3.70;;;;;;;;;;5086949;28;20052;-72
2023/09/19 14:23:38;;;;;;;13.30;4.15;;;;;;;;;;5081410;28;20043;-68
2023/09/19 14:26:07;;;;;;;13.07;4.15;;;;;;;;;;5076312;28;20673;-70
2023/09/19 14:28:33;;;;;;;11.93;3.58;;;;;;;;;;5089767;28;20056;-72
2023/09/19 14:31:08;;;;;;;27.98;5.25;;;;;;;;;;5090361;28;20047;-72
2023/09/19 14:33:34;;;;;;;;;;;;;;;;;;5089099;28;20040;-70
2023/09/19 14:36:06;;;;;;;15.38;3.50;;;;;;;;;;5090284;28;19951;-68
2023/09/19 14:38:34;;;;;;;9.32;2.97;;;;;;;;;;5088590;28;20052;-74
2023/09/19 14:41:04;;;;;;;10.95;2.97;;;;;;;;;;5082313;28;20277;-75
2023/09/19 14:43:32;;;;;;;11.65;2.47;;;;;;;;;;5085949;28;20051;-68
2023/09/19 14:46:05;;;;;;;8.10;2.40;;;;;;;;;;5089241;28;20050;-67
2023/09/19 14:48:30;;;;;;;8.70;2.25;;;;;;;;;;5088760;28;20150;-72
2023/09/19 14:51:05;;;;;;;7.00;2.20;;;;;;;;;;5088589;28;20395;-71
2023/09/19 14:53:32;;;;;;;7.15;1.80;;;;;;;;;;5084887;28;20082;-74
2023/09/19 14:56:39;;;;;;;6.78;1.85;;;;;;;;;;5085113;28;20048;-70
2023/09/19 15:00:21;;;;;;;3.80;1.40;;;;;;;;;;5083648;28;20613;-69
2023/09/19 15:04:00;;;;;;;8.35;2.03;;;;;;;;;;5083779;28;20096;-74
2023/09/19 15:07:41;;;;;;;5.68;1.67;;;;;;;;;;5072047;28;20044;-70
2023/09/19 15:11:22;;;;;;;11.70;2.10;;;;;;;;;;5083421;28;20158;-67
2023/09/19 15:15:02;;;;;;;10.10;2.40;;;;;;;;;;5079140;28;20518;-68
2023/09/19 15:18:43;;;;;;;14.68;2.95;;;;;;;;;;5080673;28;20075;-64
2023/09/19 15:22:23;;;;;;;10.85;2.45;;;;;;;;;;5078031;28;20474;-70
2023/09/19 15:26:03;;;;;;;20.67;3.03;;;;;;;;;;5085758;28;20471;-64
2023/09/19 15:29:44;;;;;;;10.75;3.00;;;;;;;;;;5085782;28;20092;-67
2023/09/19 15:33:24;;;;;;;10.60;2.80;;;;;;;;;;5081848;28;20040;-68
2023/09/19 15:37:04;;;;;;;9.85;2.70;;;;;;;;;;5071348;28;20064;-69
2023/09/19 15:40:45;;;;;;;12.65;3.30;;;;;;;;;;5077323;28;20123;-65
2023/09/19 15:44:26;;;;;;;10.38;3.08;;;;;;;;;;5080077;28;20044;-66
2023/09/19 15:48:05;;;;;;;9.32;2.78;;;;;;;;;;5077641;28;20405;-68
2023/09/19 15:51:46;;;;;;;8.70;2.70;;;;;;;;;;5087493;28;20094;-69
2023/09/19 15:55:26;;;;;;;11.73;3.38;;;;;;;;;;5072572;28;20080;-67
2023/09/19 15:59:08;;;;;;;9.43;3.00;;;;;;;;;;5079412;28;20048;-70
2023/09/19 16:02:08;;;;;;;10.43;2.55;;;;;;;;;;5078835;28;20047;-68
2023/09/19 16:05:37;;;;;;;12.52;2.30;;;;;;;;;;5079029;28;20055;-69
2023/09/19 16:09:21;;;;;;;9.35;2.65;;;;;;;;;;5078672;28;20147;-65
2023/09/19 16:13:01;;;;;;;12.10;2.60;;;;;;;;;;5077496;28;20072;-66
2023/09/19 16:16:42;;;;;;;12.65;2.50;;;;;;;;;;5079860;28;20119;-68
2023/09/19 16:20:23;;;;;;;8.98;2.28;;;;;;;;;;5079394;28;20396;-67
2023/09/19 16:24:05;;;;;;;12.77;2.88;;;;;;;;;;5075511;28;20044;-65
2023/09/19 16:27:46;;;;;;;11.50;2.40;;;;;;;;;;5075109;28;20052;-66
2023/09/19 16:31:26;;;;;;;6.53;2.35;;;;;;;;;;5074830;28;20051;-68
2023/09/19 16:35:06;;;;;;;5.47;1.98;;;;;;;;;;5076103;28;20071;-68
2023/09/19 16:38:47;;;;;;;12.43;2.65;;;;;;;;;;5078630;28;20086;-69
2023/09/19 16:42:27;;;;;;;5.78;1.70;;;;;;;;;;5085149;28;20139;-67
2023/09/19 16:46:15;;;;;;;6.28;1.80;;;;;;;;;;5081921;28;20160;-67
2023/09/19 16:49:53;;;;;;;7.65;2.45;;;;;;;;;;5073344;28;20166;-67
2023/09/19 16:53:34;;;;;;;6.03;2.17;;;;;;;;;;5079511;28;20051;-67
2023/09/19 16:57:14;;;;;;;3.88;1.65;;;;;;;;;;5075096;28;20131;-66
2023/09/19 17:00:55;;;;;;;5.90;1.70;;;;;;;;;;5086399;28;20113;-68
2023/09/19 17:04:35;;;;;;;5.93;1.95;;;;;;;;;;5080828;28;20044;-68
2023/09/19 17:08:15;;;;;;;2.83;1.48;;;;;;;;;;5076692;28;20044;-67
2023/09/19 17:11:57;;;;;;;5.35;2.03;;;;;;;;;;5074583;28;20478;-66
2023/09/19 17:15:36;;;;;;;5.05;2.10;;;;;;;;;;5071719;28;20121;-66
2023/09/19 17:19:18;;;;;;;4.78;2.10;;;;;;;;;;5077324;28;20048;-68
2023/09/19 17:22:17;;;;;;;6.47;1.98;;;;;;;;;;5077411;28;20055;-66
2023/09/19 17:25:24;;;;;;;7.03;2.00;;;;;;;;;;5074268;28;20501;-68
2023/09/19 17:28:25;;;;;;;9.18;2.90;;;;;;;;;;5076212;28;20141;-68
2023/09/19 17:30:52;;;;;;;7.03;2.20;;;;;;;;;;5079684;28;20055;-68